Time;durP1;ratioP1;P1;durP2;ratioP2;P2;SDS_P1;SDS_P2;PMS_P1;PMS_P2;Temp;Humidity;BMP_temperature;BMP_pressure;BME280_temperature;BME280_humidity;BME280_pressure;Samples;Min_cycle;Max_cycle;Signal;HPM_P1;HPM_P2
2022/11/24 00:00:01;;;;;;;34.58;20.23;;;7.00;99.90;;;;;;5070360;28;20801;-70
2022/11/24 00:02:28;;;;;;;46.95;21.05;;;7.00;99.90;;;;;;5070384;28;20142;-70
2022/11/24 00:04:53;;;;;;;40.15;22.17;;;7.00;99.90;;;;;;5070975;28;20409;-70
2022/11/24 00:07:19;;;;;;;33.78;19.00;;;7.00;99.90;;;;;;5070733;28;20045;-70
2022/11/24 00:09:45;;;;;;;44.90;19.52;;;7.00;99.90;;;;;;5070640;28;20053;-70
2022/11/24 00:12:11;;;;;;;42.58;20.33;;;7.00;99.90;;;;;;5074514;28;20036;-70
2022/11/24 00:14:36;;;;;;;59.92;20.17;;;7.00;99.90;;;;;;5071250;28;20508;-70
2022/11/24 00:17:02;;;;;;;39.55;18.48;;;7.00;99.90;;;;;;5070668;28;20068;-69
2022/11/24 00:19:28;;;;;;;33.97;18.58;;;7.00;99.90;;;;;;5069822;28;20036;-70
2022/11/24 00:21:53;;;;;;;35.85;18.80;;;7.00;99.90;;;;;;5069185;28;20069;-70
2022/11/24 00:24:19;;;;;;;41.42;18.38;;;6.90;99.90;;;;;;5070000;28;20049;-70
2022/11/24 00:26:45;;;;;;;39.13;18.75;;;6.90;99.90;;;;;;5070830;28;20127;-70
2022/11/24 00:29:10;;;;;;;38.60;18.00;;;6.90;99.90;;;;;;5060660;28;20048;-70
2022/11/24 00:31:38;;;;;;;47.20;16.83;;;6.90;99.90;;;;;;5070542;28;20059;-70
2022/11/24 00:34:13;;;;;;;43.67;18.05;;;6.90;99.90;;;;;;5070138;28;20835;-70
2022/11/24 00:36:40;;;;;;;34.65;18.02;;;6.90;99.90;;;;;;5080426;28;20139;-70
2022/11/24 00:39:11;;;;;;;40.03;17.80;;;6.90;99.90;;;;;;5070212;28;20045;-70
2022/11/24 00:41:37;;;;;;;30.23;16.85;;;6.90;99.90;;;;;;5069912;28;20033;-70
2022/11/24 00:44:03;;;;;;;33.30;15.05;;;6.90;99.90;;;;;;5070056;28;20064;-70
2022/11/24 00:46:29;;;;;;;43.92;18.98;;;6.80;99.90;;;;;;5070176;28;20533;-70
2022/11/24 00:48:55;;;;;;;37.28;15.13;;;6.80;99.90;;;;;;5077939;28;20098;-70
2022/11/24 00:51:25;;;;;;;36.47;16.42;;;6.80;99.90;;;;;;5069724;28;20056;-70
2022/11/24 00:53:52;;;;;;;35.05;15.73;;;6.80;99.90;;;;;;5053981;28;20127;-70
2022/11/24 00:56:18;;;;;;;39.90;16.80;;;6.70;99.90;;;;;;5082116;28;20436;-70
2022/11/24 00:58:43;;;;;;;29.85;15.52;;;6.70;99.90;;;;;;5085880;28;20044;-70
2022/11/24 01:01:18;;;;;;;33.58;15.98;;;6.70;99.90;;;;;;5070465;28;20123;-70
2022/11/24 01:03:45;;;;;;;35.88;15.35;;;6.70;99.90;;;;;;5073620;28;20037;-70
2022/11/24 01:06:29;;;;;;;35.72;15.63;;;6.70;99.90;;;;;;5069480;28;20780;-70
2022/11/24 01:08:56;;;;;;;41.25;16.58;;;6.70;99.90;;;;;;5069210;28;20055;-70
2022/11/24 01:12:00;;;;;;;34.25;15.15;;;6.70;99.90;;;;;;5067429;28;20052;-70
2022/11/24 01:14:21;;;;;;;41.22;16.33;;;6.70;99.90;;;;;;5067672;28;20051;-70
2022/11/24 01:16:47;;;;;;;41.40;16.10;;;6.60;99.90;;;;;;5069548;28;20049;-70
2022/11/24 01:19:13;;;;;;;38.17;15.35;;;6.60;99.90;;;;;;5076336;28;20512;-70
2022/11/24 01:21:39;;;;;;;32.08;14.63;;;6.60;99.90;;;;;;5087419;28;20063;-70
2022/11/24 01:24:05;;;;;;;34.92;15.88;;;6.60;99.90;;;;;;5077546;28;20222;-71
2022/11/24 01:26:30;;;;;;;45.17;15.73;;;6.50;99.90;;;;;;5076443;28;20048;-70
2022/11/24 01:28:57;;;;;;;46.25;16.23;;;6.50;99.90;;;;;;5073552;28;20601;-70
2022/11/24 01:31:24;;;;;;;32.50;14.73;;;6.50;99.90;;;;;;5061004;28;20067;-70
2022/11/24 01:33:50;;;;;;;34.80;14.73;;;6.50;99.90;;;;;;5079759;28;20094;-71
2022/11/24 01:36:16;;;;;;;46.65;14.77;;;6.50;99.90;;;;;;5084194;28;20331;-70
2022/11/24 01:38:42;;;;;;;34.53;14.70;;;6.40;99.90;;;;;;5069322;28;20058;-70
2022/11/24 01:41:15;;;;;;;32.80;14.18;;;6.40;99.90;;;;;;5068491;28;20091;-70
2022/11/24 01:43:42;;;;;;;37.25;14.25;;;6.40;99.90;;;;;;5055515;28;20052;-70
2022/11/24 01:46:34;;;;;;;42.67;15.32;;;6.40;99.90;;;;;;5066965;28;20446;-70
2022/11/24 01:49:11;;;;;;;36.25;13.98;;;6.40;99.90;;;;;;5056344;28;20052;-70
2022/11/24 01:51:52;;;;;;;39.08;13.27;;;6.40;99.90;;;;;;5068653;28;20056;-70
2022/11/24 01:54:24;;;;;;;38.72;12.80;;;6.40;99.90;;;;;;5068878;28;20060;-70
2022/11/24 01:56:56;;;;;;;50.20;14.82;;;6.40;99.90;;;;;;5068566;28;20060;-70
2022/11/24 01:59:24;;;;;;;40.30;14.20;;;6.40;99.90;;;;;;5058166;28;20044;-70
2022/11/24 02:01:51;;;;;;;45.17;14.25;;;6.40;99.90;;;;;;5066834;28;20509;-71
2022/11/24 02:04:22;;;;;;;42.83;13.32;;;6.40;99.90;;;;;;5065449;28;20044;-70
2022/11/24 02:06:50;;;;;;;40.55;14.38;;;6.40;99.90;;;;;;5074741;28;20122;-70
2022/11/24 02:09:28;;;;;;;32.35;13.43;;;6.40;99.90;;;;;;5068728;28;20044;-70
2022/11/24 02:11:55;;;;;;;37.63;14.15;;;6.40;99.90;;;;;;5068180;28;20516;-71
2022/11/24 02:14:22;;;;;;;38.55;13.88;;;6.40;99.90;;;;;;5067407;28;20155;-70
2022/11/24 02:16:50;;;;;;;55.47;13.57;;;6.40;99.90;;;;;;5068895;28;20044;-70
2022/11/24 02:19:40;;;;;;;40.53;14.47;;;6.40;99.90;;;;;;5067650;28;20071;-70
2022/11/24 02:22:24;;;;;;;39.35;14.27;;;6.40;99.90;;;;;;5052119;28;20354;-70
2022/11/24 02:25:01;;;;;;;41.33;12.73;;;6.40;99.90;;;;;;5066672;28;20198;-71
2022/11/24 02:27:26;;;;;;;45.03;13.63;;;6.40;99.90;;;;;;5067729;28;20082;-70
2022/11/24 02:29:52;;;;;;;33.60;12.30;;;6.40;99.90;;;;;;5067613;28;20056;-70
2022/11/24 02:32:19;;;;;;;38.20;12.45;;;6.40;99.90;;;;;;5068133;28;20406;-70
2022/11/24 02:34:44;;;;;;;46.30;12.80;;;6.40;99.90;;;;;;5064959;28;20472;-71
2022/11/24 02:37:10;;;;;;;39.83;13.77;;;6.40;99.90;;;;;;5088195;28;20056;-70
2022/11/24 02:39:36;;;;;;;36.08;13.05;;;6.30;99.90;;;;;;5068661;28;20086;-70
2022/11/24 02:42:07;;;;;;;37.20;12.05;;;6.30;99.90;;;;;;5069729;28;20045;-70
2022/11/24 02:44:37;;;;;;;34.08;12.27;;;6.30;99.90;;;;;;5080287;28;20044;-71
2022/11/24 02:47:09;;;;;;;30.30;11.98;;;6.30;99.90;;;;;;5066119;28;20072;-71
2022/11/24 02:49:35;;;;;;;30.13;11.63;;;6.30;99.90;;;;;;5067483;28;20036;-70
2022/11/24 02:52:01;;;;;;;44.33;12.48;;;6.30;99.90;;;;;;5066889;28;20124;-71
2022/11/24 02:54:27;;;;;;;28.27;11.98;;;6.30;99.90;;;;;;5067769;28;20055;-71
2022/11/24 02:56:53;;;;;;;34.53;12.10;;;6.40;99.90;;;;;;5066942;28;20090;-70
2022/11/24 02:59:19;;;;;;;43.15;11.15;;;6.40;99.90;;;;;;5066631;28;20040;-70
2022/11/24 03:01:45;;;;;;;51.53;13.82;;;6.40;99.90;;;;;;5066886;28;20058;-70
2022/11/24 03:04:11;;;;;;;43.15;12.80;;;6.40;99.90;;;;;;5066749;28;20119;-70
2022/11/24 03:06:37;;;;;;;50.80;13.25;;;6.40;99.90;;;;;;5067183;28;20063;-71
2022/11/24 03:09:03;;;;;;;40.83;12.75;;;6.40;99.90;;;;;;5067584;28;20095;-71
2022/11/24 03:11:29;;;;;;;43.20;11.38;;;6.50;99.90;;;;;;5068046;28;20036;-70
2022/11/24 03:13:55;;;;;;;47.42;12.80;;;6.40;99.90;;;;;;5064848;28;20048;-71
2022/11/24 03:16:21;;;;;;;43.45;13.18;;;6.50;99.90;;;;;;5067581;28;20055;-70
2022/11/24 03:18:49;;;;;;;41.00;12.50;;;6.50;99.90;;;;;;5062638;28;20080;-71
2022/11/24 03:21:14;;;;;;;38.60;11.23;;;6.50;99.90;;;;;;5067423;28;20044;-71
2022/11/24 03:23:40;;;;;;;39.97;12.88;;;6.50;99.90;;;;;;5067145;28;20443;-71
2022/11/24 03:26:11;;;;;;;36.97;11.75;;;6.50;99.90;;;;;;5067516;28;20957;-71
2022/11/24 03:28:37;;;;;;;45.58;12.10;;;6.50;99.90;;;;;;5067687;28;20052;-71
2022/11/24 03:31:04;;;;;;;33.40;10.25;;;6.50;99.90;;;;;;5067786;28;20088;-71
2022/11/24 03:33:29;;;;;;;39.03;12.10;;;6.50;99.90;;;;;;5067166;28;20056;-71
2022/11/24 03:35:55;;;;;;;43.90;12.00;;;6.50;99.90;;;;;;5067158;28;20428;-71
2022/11/24 03:38:21;;;;;;;50.95;11.48;;;6.50;99.90;;;;;;5062051;28;20052;-71
2022/11/24 03:40:46;;;;;;;44.92;12.95;;;6.50;99.90;;;;;;5067221;28;20045;-71
2022/11/24 03:43:12;;;;;;;41.13;11.07;;;6.50;99.90;;;;;;5067719;28;20448;-71
2022/11/24 03:45:39;;;;;;;40.03;11.90;;;6.50;99.90;;;;;;5067133;28;20382;-70
2022/11/24 03:48:06;;;;;;;37.95;11.40;;;6.50;99.90;;;;;;5067485;28;20063;-71
2022/11/24 03:50:31;;;;;;;26.48;11.00;;;6.50;99.90;;;;;;5067188;28;20070;-70
2022/11/24 03:52:57;;;;;;;27.83;10.90;;;6.50;99.90;;;;;;5067206;28;20068;-70
2022/11/24 03:55:23;;;;;;;38.67;11.45;;;6.60;99.90;;;;;;5066150;28;20045;-71
2022/11/24 03:57:48;;;;;;;38.17;10.57;;;6.60;99.90;;;;;;5064322;28;20441;-70
2022/11/24 04:00:15;;;;;;;34.60;10.98;;;6.60;99.90;;;;;;5059949;28;20139;-71
2022/11/24 04:02:40;;;;;;;41.63;10.50;;;6.60;99.90;;;;;;5065302;28;20420;-71
2022/11/24 04:05:06;;;;;;;29.23;8.98;;;6.60;99.90;;;;;;5080990;28;20048;-70
2022/11/24 04:07:32;;;;;;;34.13;11.00;;;6.60;99.90;;;;;;5067584;28;20128;-71
2022/11/24 04:09:58;;;;;;;46.30;10.40;;;6.60;99.90;;;;;;5056708;28;20152;-71
2022/11/24 04:15:08;;;;;;;31.98;9.40;;;6.50;99.90;;;;;;5064869;28;20048;-71
2022/11/24 04:17:34;;;;;;;48.80;9.85;;;6.50;99.90;;;;;;5055896;28;20052;-71
2022/11/24 04:19:59;;;;;;;30.92;7.75;;;6.50;99.90;;;;;;5070339;28;20055;-71
2022/11/24 04:22:25;;;;;;;27.75;8.43;;;6.50;99.90;;;;;;5074444;28;20044;-71
2022/11/24 04:24:51;;;;;;;45.28;9.75;;;6.50;99.90;;;;;;5067933;28;20395;-71
2022/11/24 04:27:16;;;;;;;30.45;8.55;;;6.40;99.90;;;;;;5077100;28;20049;-71
2022/11/24 04:29:42;;;;;;;42.60;10.18;;;6.40;99.90;;;;;;5070744;28;20181;-71
2022/11/24 04:32:08;;;;;;;37.50;11.27;;;6.40;99.90;;;;;;5078512;28;20504;-71
2022/11/24 04:34:34;;;;;;;36.90;8.88;;;6.40;99.90;;;;;;5070477;28;20041;-71
2022/11/24 04:36:59;;;;;;;37.45;9.18;;;6.40;99.90;;;;;;5088909;28;20856;-71
2022/11/24 04:39:25;;;;;;;37.78;9.75;;;6.40;99.90;;;;;;5082008;28;20048;-71
2022/11/24 04:41:51;;;;;;;23.27;7.88;;;6.40;99.90;;;;;;5073450;28;20097;-71
2022/11/24 04:44:17;;;;;;;26.35;8.07;;;6.40;99.90;;;;;;5071096;28;20048;-72
2022/11/24 04:46:42;;;;;;;41.20;9.50;;;6.40;99.90;;;;;;5070580;28;20060;-71
2022/11/24 04:49:11;;;;;;;40.30;9.05;;;6.40;99.90;;;;;;5070166;28;21065;-71
2022/11/24 04:51:40;;;;;;;33.85;9.20;;;6.30;99.90;;;;;;5069210;28;20136;-71
2022/11/24 04:54:07;;;;;;;43.30;7.90;;;6.30;99.90;;;;;;5070491;28;20131;-72
2022/11/24 04:56:32;;;;;;;41.97;11.15;;;6.30;99.90;;;;;;5070439;28;20048;-71
2022/11/24 04:58:59;;;;;;;30.30;7.43;;;6.30;99.90;;;;;;5071058;28;20198;-71
2022/11/24 05:01:25;;;;;;;22.05;7.82;;;6.20;99.90;;;;;;5073065;28;20050;-71
2022/11/24 05:03:55;;;;;;;40.13;8.77;;;6.10;99.90;;;;;;5068836;28;20044;-71
2022/11/24 05:06:22;;;;;;;40.28;9.00;;;6.20;99.90;;;;;;5052086;28;20048;-71
2022/11/24 05:08:51;;;;;;;34.70;8.50;;;6.10;99.90;;;;;;5068608;28;20147;-71
2022/11/24 05:11:18;;;;;;;33.30;9.23;;;6.10;99.90;;;;;;5067298;28;20047;-71
2022/11/24 05:13:44;;;;;;;27.65;8.50;;;6.10;99.90;;;;;;5074614;28;20460;-71
2022/11/24 05:16:10;;;;;;;42.30;9.55;;;6.00;99.90;;;;;;5069302;28;20048;-71
2022/11/24 05:18:37;;;;;;;35.88;10.13;;;6.00;99.90;;;;;;5076727;28;20056;-71
2022/11/24 05:21:03;;;;;;;27.48;7.70;;;6.00;99.90;;;;;;5080976;28;20543;-71
2022/11/24 05:23:29;;;;;;;26.83;8.73;;;6.00;99.90;;;;;;5068010;28;20448;-71
2022/11/24 05:26:00;;;;;;;38.53;8.27;;;5.90;99.90;;;;;;5057808;28;20048;-71
2022/11/24 05:28:26;;;;;;;25.52;7.32;;;5.90;99.90;;;;;;5053695;28;20060;-71
2022/11/24 05:30:51;;;;;;;29.75;8.45;;;5.90;99.90;;;;;;5068727;28;20052;-71
2022/11/24 05:33:21;;;;;;;35.38;9.60;;;5.90;99.90;;;;;;5069430;28;20048;-71
2022/11/24 05:35:48;;;;;;;40.72;9.88;;;5.90;99.90;;;;;;5070044;28;20071;-71
2022/11/24 05:38:15;;;;;;;30.02;8.40;;;5.80;99.90;;;;;;5045108;28;20041;-71
2022/11/24 05:40:41;;;;;;;28.95;7.65;;;5.80;99.90;;;;;;5072185;28;21424;-71
2022/11/24 05:43:15;;;;;;;30.88;8.25;;;5.80;99.90;;;;;;5081450;28;20127;-71
2022/11/24 05:45:41;;;;;;;25.42;7.55;;;5.80;99.90;;;;;;5069486;28;20708;-71
2022/11/24 05:48:08;;;;;;;31.85;8.25;;;5.80;99.90;;;;;;5069041;28;20040;-71
2022/11/24 05:50:35;;;;;;;18.83;7.53;;;5.80;99.90;;;;;;5068909;28;20768;-71
2022/11/24 05:53:05;;;;;;;25.70;7.85;;;5.80;99.90;;;;;;5066625;28;20532;-71
2022/11/24 05:55:31;;;;;;;25.15;7.97;;;5.80;99.90;;;;;;5067580;28;20044;-71
2022/11/24 05:58:01;;;;;;;28.38;8.10;;;5.80;99.90;;;;;;5067482;28;20051;-71
2022/11/24 06:00:28;;;;;;;30.80;8.27;;;5.80;99.90;;;;;;5069054;28;20090;-71
2022/11/24 06:02:55;;;;;;;25.08;8.32;;;5.80;99.90;;;;;;5068109;28;20053;-71
2022/11/24 06:05:22;;;;;;;27.70;7.75;;;5.80;99.90;;;;;;5067102;28;20044;-71
2022/11/24 06:07:48;;;;;;;30.67;8.18;;;5.70;99.90;;;;;;5057782;28;20136;-71
2022/11/24 06:10:15;;;;;;;22.83;7.78;;;5.70;99.90;;;;;;5067703;28;20131;-71
2022/11/24 06:12:41;;;;;;;30.55;8.55;;;5.70;99.90;;;;;;5067705;28;20047;-71
2022/11/24 06:15:07;;;;;;;30.25;9.45;;;5.70;99.90;;;;;;5067998;28;20040;-71
2022/11/24 06:17:33;;;;;;;32.15;9.20;;;5.70;99.90;;;;;;5068786;28;20053;-71
2022/11/24 06:19:59;;;;;;;38.30;9.35;;;5.70;99.90;;;;;;5068762;28;20775;-71
2022/11/24 06:22:25;;;;;;;31.75;9.70;;;5.80;99.90;;;;;;5068800;28;20048;-72
2022/11/24 06:24:51;;;;;;;42.35;9.85;;;5.80;99.90;;;;;;5053991;28;20512;-71
2022/11/24 06:27:18;;;;;;;26.98;8.52;;;5.70;99.90;;;;;;5066067;28;20080;-71
2022/11/24 06:29:43;;;;;;;29.33;8.38;;;5.70;99.90;;;;;;5067699;28;20052;-71
2022/11/24 06:32:09;;;;;;;38.85;9.98;;;5.70;99.90;;;;;;5066955;28;20044;-71
2022/11/24 06:34:36;;;;;;;29.73;8.43;;;5.70;99.90;;;;;;5067223;28;20048;-71
2022/11/24 06:37:02;;;;;;;25.45;8.00;;;5.70;99.90;;;;;;5067419;28;20071;-71
2022/11/24 06:39:27;;;;;;;31.27;8.02;;;5.70;99.90;;;;;;5067465;28;20041;-71
2022/11/24 06:41:53;;;;;;;43.38;8.30;;;5.70;99.90;;;;;;5066678;28;20117;-71
2022/11/24 06:44:18;;;;;;;38.72;9.00;;;5.60;99.90;;;;;;5065222;28;20119;-71
2022/11/24 06:46:44;;;;;;;40.53;9.68;;;5.70;99.90;;;;;;5066901;28;20048;-71
2022/11/24 06:49:10;;;;;;;31.52;9.38;;;5.70;99.90;;;;;;5067483;28;20732;-71
2022/11/24 06:51:35;;;;;;;29.63;7.32;;;5.70;99.90;;;;;;5061326;28;20160;-71
2022/11/24 06:54:05;;;;;;;39.75;10.55;;;5.70;99.90;;;;;;5067308;28;20045;-71
2022/11/24 06:56:31;;;;;;;39.47;9.25;;;5.70;99.90;;;;;;5066548;28;20048;-71
2022/11/24 06:58:56;;;;;;;31.08;10.55;;;5.60;99.90;;;;;;5066168;28;20048;-71
2022/11/24 07:01:25;;;;;;;38.40;9.60;;;5.70;99.90;;;;;;5065644;28;20044;-71
2022/11/24 07:03:52;;;;;;;26.65;8.23;;;5.70;99.90;;;;;;5063466;28;20212;-71
2022/11/24 07:06:19;;;;;;;29.90;8.65;;;5.70;99.90;;;;;;5068267;28;20064;-71
2022/11/24 07:08:46;;;;;;;27.15;9.13;;;5.70;99.90;;;;;;5067982;28;20386;-71
2022/11/24 07:11:16;;;;;;;36.28;9.98;;;5.70;99.90;;;;;;5069736;28;20048;-71
2022/11/24 07:13:42;;;;;;;33.33;10.73;;;5.70;99.90;;;;;;5085662;28;20050;-71
2022/11/24 07:16:18;;;;;;;43.75;9.63;;;5.70;99.90;;;;;;5076465;28;20045;-71
2022/11/24 07:18:45;;;;;;;39.25;9.88;;;5.70;99.90;;;;;;5075984;28;20044;-71
2022/11/24 07:21:11;;;;;;;42.25;11.45;;;5.70;99.90;;;;;;5076885;28;20098;-71
2022/11/24 07:23:37;;;;;;;36.42;10.25;;;5.70;99.90;;;;;;5078618;28;20523;-71
2022/11/24 07:26:07;;;;;;;29.10;9.15;;;5.70;99.90;;;;;;5067138;28;20052;-71
2022/11/24 07:28:33;;;;;;;38.33;9.95;;;5.70;99.90;;;;;;5077802;28;20049;-71
2022/11/24 07:31:04;;;;;;;26.88;8.90;;;5.70;99.90;;;;;;5065772;28;20074;-71
2022/11/24 07:33:30;;;;;;;34.00;10.95;;;5.70;99.90;;;;;;5078629;28;20393;-71
2022/11/24 07:35:58;;;;;;;29.23;8.52;;;5.70;99.90;;;;;;5073345;28;20560;-71
2022/11/24 07:38:24;;;;;;;42.08;10.43;;;5.70;99.90;;;;;;5066483;28;20115;-71
2022/11/24 07:40:49;;;;;;;41.10;10.98;;;5.70;99.90;;;;;;5063778;28;20568;-71
2022/11/24 07:43:15;;;;;;;39.35;10.07;;;5.70;99.90;;;;;;5077170;28;20076;-71
2022/11/24 07:45:41;;;;;;;42.22;11.20;;;5.70;99.90;;;;;;5066079;28;20563;-71
2022/11/24 07:48:06;;;;;;;42.50;11.35;;;5.80;99.90;;;;;;5059063;28;20052;-71
2022/11/24 07:50:32;;;;;;;47.70;11.68;;;5.80;99.90;;;;;;5065045;28;20070;-71
2022/11/24 07:53:04;;;;;;;21.30;5.75;;;5.80;99.90;;;;;;5066507;28;20048;-71
2022/11/24 07:55:29;;;;;;;34.95;10.35;;;5.80;99.90;;;;;;5066403;28;20063;-71
2022/11/24 07:57:58;;;;;;;41.25;10.40;;;5.90;99.90;;;;;;5064918;28;20056;-71
2022/11/24 08:00:25;;;;;;;44.90;12.32;;;5.90;99.90;;;;;;5066854;28;20049;-71
2022/11/24 08:02:51;;;;;;;39.90;10.10;;;5.90;99.90;;;;;;5055609;28;20111;-71
2022/11/24 08:05:17;;;;;;;37.80;11.25;;;6.00;99.90;;;;;;5063538;28;20040;-71
2022/11/24 08:07:42;;;;;;;35.33;11.85;;;6.00;99.90;;;;;;5070930;28;20044;-71
2022/11/24 08:10:08;;;;;;;34.85;11.05;;;6.00;99.90;;;;;;5084624;28;20528;-71
2022/11/24 08:12:34;;;;;;;42.88;12.15;;;6.00;99.90;;;;;;5072899;28;20394;-71
2022/11/24 08:14:59;;;;;;;53.88;12.75;;;6.10;99.90;;;;;;5088007;28;20039;-71
2022/11/24 08:17:27;;;;;;;42.00;10.85;;;6.10;99.90;;;;;;5083951;28;20506;-71
2022/11/24 08:19:53;;;;;;;39.67;11.20;;;6.10;99.90;;;;;;5076918;28;20504;-71
2022/11/24 08:22:18;;;;;;;42.80;11.35;;;6.10;99.90;;;;;;5082280;28;20079;-71
2022/11/24 08:24:47;;;;;;;47.30;12.23;;;6.20;99.90;;;;;;5079378;28;20111;-72
2022/11/24 08:27:14;;;;;;;41.10;12.15;;;6.20;99.90;;;;;;5066672;28;20107;-71
2022/11/24 08:29:40;;;;;;;35.42;12.70;;;6.30;99.90;;;;;;5054045;28;20048;-72
2022/11/24 08:32:06;;;;;;;33.70;11.52;;;6.30;99.90;;;;;;5084567;28;20516;-72
2022/11/24 08:34:31;;;;;;;35.60;10.95;;;6.30;99.90;;;;;;5066319;28;20138;-72
2022/11/24 08:36:57;;;;;;;35.45;10.82;;;6.40;99.90;;;;;;5060837;28;20643;-72
2022/11/24 08:39:23;;;;;;;45.78;11.65;;;6.40;99.90;;;;;;5069804;28;20123;-71
2022/11/24 08:41:48;;;;;;;40.53;13.55;;;6.50;99.90;;;;;;5072398;28;20174;-71
2022/11/24 08:44:16;;;;;;;39.97;11.75;;;6.50;99.90;;;;;;5049584;28;20071;-72
2022/11/24 08:46:42;;;;;;;32.38;10.90;;;6.60;99.90;;;;;;5083476;28;20052;-72
2022/11/24 08:49:08;;;;;;;43.30;12.15;;;6.60;99.90;;;;;;5088353;28;20035;-72
2022/11/24 08:51:34;;;;;;;40.08;12.93;;;6.60;99.90;;;;;;5081029;28;20089;-72
2022/11/24 08:54:01;;;;;;;54.42;13.23;;;6.60;99.90;;;;;;5083625;28;20052;-72
2022/11/24 08:56:28;;;;;;;28.15;11.02;;;6.60;99.90;;;;;;5077245;28;20064;-72
2022/11/24 08:58:54;;;;;;;26.85;11.23;;;6.70;99.90;;;;;;5084188;28;20527;-72
2022/11/24 09:01:21;;;;;;;41.95;10.98;;;6.70;99.90;;;;;;5059039;28;20720;-72
2022/11/24 09:03:48;;;;;;;42.53;12.02;;;6.80;99.90;;;;;;5038002;28;20052;-72
2022/11/24 09:06:14;;;;;;;35.45;12.15;;;6.80;99.90;;;;;;5068528;28;20055;-72
2022/11/24 09:08:40;;;;;;;35.38;10.90;;;6.80;99.90;;;;;;5068465;28;20086;-72
2022/11/24 09:11:08;;;;;;;34.33;12.35;;;6.90;99.90;;;;;;5070851;28;20052;-72
2022/11/24 09:13:35;;;;;;;42.67;12.98;;;6.90;99.90;;;;;;5082208;28;20048;-72
2022/11/24 09:16:08;;;;;;;35.13;10.85;;;6.90;99.90;;;;;;5073005;28;20508;-72
2022/11/24 09:18:34;;;;;;;25.65;10.25;;;7.00;99.90;;;;;;5075968;28;20048;-72
2022/11/24 09:21:17;;;;;;;40.20;10.70;;;7.00;99.90;;;;;;5066342;28;20036;-72
2022/11/24 09:23:45;;;;;;;28.20;10.98;;;7.10;99.90;;;;;;5069510;28;20052;-72
2022/11/24 09:26:23;;;;;;;22.58;10.75;;;7.20;99.90;;;;;;5070405;28;20045;-72
2022/11/24 09:28:49;;;;;;;32.75;10.52;;;7.30;99.90;;;;;;5078832;28;20064;-72
2022/11/24 09:31:16;;;;;;;32.85;9.85;;;7.30;99.90;;;;;;5073646;28;20385;-72
2022/11/24 09:33:43;;;;;;;23.23;9.18;;;7.40;99.90;;;;;;5069379;28;20056;-73
2022/11/24 09:36:09;;;;;;;24.83;8.88;;;7.40;99.90;;;;;;5078721;28;20040;-73
2022/11/24 09:38:35;;;;;;;20.83;7.95;;;7.50;99.90;;;;;;5077673;28;20048;-73
2022/11/24 09:41:16;;;;;;;21.27;8.98;;;7.60;99.90;;;;;;5065826;28;20454;-72
2022/11/24 09:44:06;;;;;;;19.38;8.73;;;7.70;99.90;;;;;;5079313;28;20374;-72
2022/11/24 09:46:41;;;;;;;15.57;7.07;;;7.80;99.90;;;;;;5069889;28;20098;-72
2022/11/24 09:49:14;;;;;;;26.25;8.70;;;7.90;99.90;;;;;;5074366;28;20047;-72
2022/11/24 09:51:44;;;;;;;16.92;7.35;;;8.00;99.90;;;;;;5067786;28;20097;-72
2022/11/24 09:54:28;;;;;;;17.45;7.00;;;8.10;99.90;;;;;;5060487;28;20074;-72
2022/11/24 09:56:58;;;;;;;20.58;8.43;;;8.20;99.90;;;;;;5062799;28;20044;-73
2022/11/24 09:59:26;;;;;;;18.23;6.43;;;8.20;99.90;;;;;;5083939;28;20036;-72
2022/11/24 10:01:52;;;;;;;12.05;6.07;;;8.30;99.90;;;;;;5070065;28;20045;-72
2022/11/24 10:04:28;;;;;;;19.58;6.18;;;8.40;99.90;;;;;;5076426;28;20546;-72
2022/11/24 10:07:26;;;;;;;14.02;6.63;;;8.50;99.90;;;;;;5070576;28;20452;-73
2022/11/24 10:09:57;;;;;;;;;;;8.60;99.90;;;;;;5073992;28;20056;-72
2022/11/24 10:13:01;;;;;;;16.10;6.07;;;8.60;99.90;;;;;;5081385;28;19920;-73
2022/11/24 10:15:36;;;;;;;10.50;6.22;;;8.70;99.90;;;;;;5072639;28;20056;-73
2022/11/24 10:18:35;;;;;;;10.48;5.82;;;8.80;99.90;;;;;;5083445;28;20404;-72
2022/11/24 10:21:27;;;;;;;7.93;5.25;;;8.90;99.90;;;;;;5064261;28;20048;-73
2022/11/24 10:24:11;;;;;;;12.07;5.68;;;9.00;99.90;;;;;;5075542;28;20048;-72
2022/11/24 10:26:40;;;;;;;13.73;5.35;;;9.00;99.90;;;;;;5084193;28;20048;-72
2022/11/24 10:29:23;;;;;;;11.60;6.38;;;9.10;99.90;;;;;;5080460;28;20120;-72
2022/11/24 10:31:53;;;;;;;6.22;5.35;;;9.10;99.90;;;;;;5066274;28;20075;-72
2022/11/24 10:34:31;;;;;;;15.02;6.70;;;9.20;99.90;;;;;;5071602;28;20036;-72
2022/11/24 10:37:14;;;;;;;15.85;6.72;;;9.20;99.90;;;;;;5085900;28;20118;-72
2022/11/24 10:39:59;;;;;;;17.67;6.35;;;9.30;99.90;;;;;;5064865;28;20128;-72
2022/11/24 10:42:30;;;;;;;11.40;6.13;;;9.30;99.90;;;;;;5082772;28;20044;-72
2022/11/24 10:45:23;;;;;;;10.57;5.50;;;9.40;99.90;;;;;;5074967;28;20056;-72
2022/11/24 10:47:49;;;;;;;10.52;5.55;;;9.50;99.90;;;;;;5056940;28;20160;-72
2022/11/24 10:50:24;;;;;;;14.63;6.30;;;9.50;99.90;;;;;;5062554;28;20072;-72
2022/11/24 10:53:28;;;;;;;17.13;6.20;;;9.50;99.90;;;;;;5068373;28;20139;-72
2022/11/24 10:55:54;;;;;;;13.00;6.43;;;9.60;99.90;;;;;;5068858;28;20147;-72
2022/11/24 10:58:26;;;;;;;9.55;5.18;;;9.60;99.90;;;;;;5068874;28;20048;-72
2022/11/24 11:00:53;;;;;;;19.15;5.95;;;9.60;99.90;;;;;;5068842;28;20051;-72
2022/11/24 11:03:27;;;;;;;15.57;6.60;;;9.60;99.90;;;;;;5067902;28;20048;-72
2022/11/24 11:05:59;;;;;;;12.52;6.32;;;9.50;99.90;;;;;;5064167;28;20040;-72
2022/11/24 11:08:28;;;;;;;10.48;6.05;;;9.50;99.90;;;;;;5066649;28;20051;-71
2022/11/24 11:11:40;;;;;;;14.50;6.95;;;9.50;99.90;;;;;;5056343;28;20045;-72
2022/11/24 11:14:11;;;;;;;14.50;7.35;;;9.50;99.90;;;;;;5060856;28;20519;-71
2022/11/24 11:16:38;;;;;;;16.13;6.57;;;9.40;99.90;;;;;;5081337;28;20036;-71
2022/11/24 11:19:25;;;;;;;11.85;6.03;;;9.40;99.90;;;;;;5069600;28;20044;-71
2022/11/24 11:22:25;;;;;;;14.07;7.60;;;9.40;99.90;;;;;;5062301;28;20461;-72
2022/11/24 11:25:09;;;;;;;9.77;6.63;;;9.40;99.90;;;;;;5081249;28;20106;-71
2022/11/24 11:27:35;;;;;;;17.77;8.35;;;9.50;99.90;;;;;;5075681;28;20181;-71
2022/11/24 11:30:18;;;;;;;20.58;7.47;;;9.50;99.90;;;;;;5059804;28;20103;-71
2022/11/24 11:32:58;;;;;;;10.75;7.40;;;9.60;99.90;;;;;;5053337;28;20124;-71
2022/11/24 11:35:25;;;;;;;12.65;7.50;;;9.70;99.90;;;;;;5068217;28;20048;-71
2022/11/24 11:37:54;;;;;;;14.50;7.63;;;9.80;99.90;;;;;;5057956;28;20048;-71
2022/11/24 11:40:28;;;;;;;21.92;8.15;;;9.90;99.90;;;;;;5075405;28;20854;-71
2022/11/24 11:43:13;;;;;;;17.85;9.00;;;10.00;99.90;;;;;;5065199;28;20506;-71
2022/11/24 11:45:50;;;;;;;18.83;8.10;;;10.10;99.90;;;;;;5071384;28;20068;-71
2022/11/24 11:48:34;;;;;;;15.50;7.32;;;10.20;99.90;;;;;;5073487;28;20584;-70
2022/11/24 11:51:21;;;;;;;16.88;7.32;;;10.30;99.90;;;;;;5060668;28;20505;-71
2022/11/24 11:54:10;;;;;;;15.88;7.53;;;10.40;99.90;;;;;;5067877;28;20791;-70
2022/11/24 11:56:50;;;;;;;17.27;8.23;;;10.50;99.90;;;;;;5067662;28;20044;-70
2022/11/24 11:59:31;;;;;;;15.60;7.30;;;10.50;99.90;;;;;;5076325;28;20047;-70
2022/11/24 12:02:18;;;;;;;22.33;8.25;;;10.50;99.90;;;;;;5078898;28;20040;-70
2022/11/24 12:04:51;;;;;;;15.93;8.02;;;10.60;99.90;;;;;;5077220;28;20390;-70
2022/11/24 12:07:44;;;;;;;14.10;7.70;;;10.60;99.90;;;;;;5080894;28;20055;-70
2022/11/24 12:10:36;;;;;;;20.75;8.43;;;10.60;99.90;;;;;;5074605;28;20072;-70
2022/11/24 12:13:29;;;;;;;23.23;8.43;;;10.60;99.90;;;;;;5074584;28;20087;-70
2022/11/24 12:15:57;;;;;;;15.57;7.30;;;10.70;99.90;;;;;;5069149;28;20051;-70
2022/11/24 12:18:43;;;;;;;13.00;6.93;;;10.80;99.90;;;;;;5077429;28;20049;-70
2022/11/24 12:21:28;;;;;;;18.73;8.82;;;10.80;99.90;;;;;;5075042;28;20040;-69
2022/11/24 12:24:13;;;;;;;15.70;8.63;;;10.90;99.90;;;;;;5074486;28;20222;-70
2022/11/24 12:26:55;;;;;;;15.10;7.30;;;10.80;99.90;;;;;;5079240;28;20051;-70
2022/11/24 12:29:59;;;;;;;22.85;7.32;;;10.80;99.90;;;;;;5069610;28;20048;-69
2022/11/24 12:32:59;;;;;;;20.27;9.13;;;10.80;99.90;;;;;;5066519;28;20043;-69
2022/11/24 12:35:32;;;;;;;21.45;7.38;;;10.90;99.90;;;;;;5064894;28;20036;-69
2022/11/24 12:38:15;;;;;;;37.72;9.77;;;10.90;99.90;;;;;;5063147;28;20079;-69
2022/11/24 12:41:19;;;;;;;21.77;7.82;;;10.90;99.90;;;;;;5069562;28;20043;-70
2022/11/24 12:43:51;;;;;;;19.55;9.80;;;10.90;99.90;;;;;;5067346;28;20070;-69
2022/11/24 12:46:34;;;;;;;24.38;9.63;;;10.80;99.90;;;;;;5074276;28;20057;-69
2022/11/24 12:49:28;;;;;;;31.67;10.10;;;10.80;99.90;;;;;;5070016;28;20044;-69
2022/11/24 12:52:01;;;;;;;21.90;9.82;;;10.80;99.90;;;;;;5072031;28;20672;-71
2022/11/24 12:54:35;;;;;;;23.88;10.32;;;10.80;99.90;;;;;;5064253;28;20049;-70
2022/11/24 12:57:11;;;;;;;23.38;10.88;;;10.80;99.90;;;;;;5072204;28;20047;-70
2022/11/24 12:59:44;;;;;;;16.70;10.05;;;10.80;99.90;;;;;;5070123;28;20115;-70